Time;durP1;ratioP1;P1;durP2;ratioP2;P2;SDS_P1;SDS_P2;PMS_P1;PMS_P2;Temp;Humidity;BMP_temperature;BMP_pressure;BME280_temperature;BME280_humidity;BME280_pressure;Samples;Min_cycle;Max_cycle;Signal;HPM_P1;HPM_P2
2023/03/08 00:00:09;;;;;;;5.38;3.53;;;;;;;20.12;41.72;99842.16;5033579;28;20049;-48
2023/03/08 00:02:39;;;;;;;7.30;4.18;;;;;;;20.13;41.70;99834.94;5033672;28;20057;-49
2023/03/08 00:05:07;;;;;;;5.18;3.53;;;;;;;20.13;41.64;99840.31;5033673;28;20388;-50
2023/03/08 00:07:35;;;;;;;5.10;3.65;;;;;;;20.11;41.59;99837.81;5033601;28;20068;-49
2023/03/08 00:10:03;;;;;;;6.72;4.18;;;;;;;20.11;41.72;99843.19;5033670;28;20056;-49
2023/03/08 00:12:30;;;;;;;5.57;3.72;;;;;;;20.11;41.51;99847.72;5033532;28;20049;-49
2023/03/08 00:14:58;;;;;;;7.22;3.92;;;;;;;20.11;41.79;99851.25;5033545;28;20064;-49
2023/03/08 00:17:25;;;;;;;5.53;3.83;;;;;;;20.10;41.78;99846.88;5033452;28;20480;-48
2023/03/08 00:19:52;;;;;;;6.72;3.53;;;;;;;20.11;41.55;99853.09;5033480;28;20056;-48
2023/03/08 00:22:19;;;;;;;6.72;4.03;;;;;;;20.11;41.41;99847.72;5033318;28;20050;-48
2023/03/08 00:24:47;;;;;;;5.60;3.95;;;;;;;20.10;41.71;99836.13;5033108;28;20058;-48
2023/03/08 00:27:14;;;;;;;5.70;4.03;;;;;;;20.10;41.56;99829.91;5033383;28;20041;-48
2023/03/08 00:29:41;;;;;;;5.75;3.83;;;;;;;20.09;41.68;99829.03;5031450;28;20048;-47
2023/03/08 00:32:09;;;;;;;7.82;3.90;;;;;;;20.08;41.76;99835.44;5033203;28;20053;-49
2023/03/08 00:34:36;;;;;;;8.63;4.72;;;;;;;20.08;41.73;99840.81;5033269;28;20045;-52
2023/03/08 00:37:03;;;;;;;8.23;4.10;;;;;;;20.08;41.52;99848.88;5033254;28;20052;-49
2023/03/08 00:39:31;;;;;;;6.32;3.97;;;;;;;20.08;41.69;99832.75;5032897;28;20045;-49
2023/03/08 00:41:59;;;;;;;5.68;3.83;;;;;;;20.08;41.55;99838.13;5032231;28;20060;-48
2023/03/08 00:44:26;;;;;;;6.03;3.75;;;;;;;20.07;41.65;99825.69;5032136;28;20400;-51
2023/03/08 00:46:54;;;;;;;7.50;3.70;;;;;;;20.08;41.56;99839.97;5033170;28;20052;-48
2023/03/08 00:49:21;;;;;;;7.45;4.60;;;;;;;20.08;41.77;99848.03;5033056;28;20148;-49
2023/03/08 00:51:48;;;;;;;6.88;3.95;;;;;;;20.07;41.74;99849.88;5033064;28;20076;-48
2023/03/08 00:54:16;;;;;;;9.27;4.95;;;;;;;20.08;41.69;99842.66;5031772;28;20045;-48
2023/03/08 00:56:43;;;;;;;5.38;4.43;;;;;;;20.08;41.76;99826.53;5033298;28;20061;-48
2023/03/08 00:59:10;;;;;;;7.15;4.40;;;;;;;20.07;41.85;99830.22;5035866;28;20476;-47
2023/03/08 01:01:39;;;;;;;5.30;4.28;;;;;;;20.07;41.62;99830.22;5035945;28;20080;-48
2023/03/08 01:04:06;;;;;;;5.55;3.72;;;;;;;20.08;41.72;99829.22;5035849;28;20053;-49
2023/03/08 01:06:34;;;;;;;5.05;4.00;;;;;;;20.07;41.70;99828.38;5036467;28;20072;-48
2023/03/08 01:09:02;;;;;;;5.50;3.30;;;;;;;20.07;41.78;99831.06;5035773;28;20076;-51
2023/03/08 01:11:29;;;;;;;6.50;4.20;;;;;;;20.07;41.62;99824.84;5036273;28;20415;-48
2023/03/08 01:13:56;;;;;;;6.85;4.60;;;;;;;20.06;41.75;99815.97;5036456;28;20056;-49
2023/03/08 01:16:27;;;;;;;5.65;4.15;;;;;;;20.06;41.53;99815.97;5035204;28;20060;-49
2023/03/08 01:18:56;;;;;;;5.03;3.70;;;;;;;20.05;41.67;99814.25;5036574;28;20049;-49
2023/03/08 01:21:27;;;;;;;6.65;4.13;;;;;;;20.06;41.69;99828.56;5036613;28;20479;-48
2023/03/08 01:23:55;;;;;;;12.52;4.45;;;;;;;20.05;41.75;99822.31;5035039;28;20053;-49
2023/03/08 01:26:25;;;;;;;6.60;4.28;;;;;;;20.05;41.47;99825.00;5036412;28;20045;-49
2023/03/08 01:28:56;;;;;;;6.82;4.10;;;;;;;20.06;41.65;99831.25;5035444;28;20060;-48
2023/03/08 01:31:26;;;;;;;7.32;4.35;;;;;;;20.05;41.43;99827.69;5035318;28;20072;-50
2023/03/08 01:33:56;;;;;;;6.82;4.15;;;;;;;20.05;41.60;99826.84;5034732;28;20045;-49
2023/03/08 01:36:25;;;;;;;8.88;4.32;;;;;;;20.04;41.40;99834.06;5035348;28;20053;-49
2023/03/08 01:38:53;;;;;;;6.22;3.53;;;;;;;20.04;41.45;99836.75;5036293;28;20049;-47
2023/03/08 01:41:25;;;;;;;7.15;4.10;;;;;;;20.04;41.51;99842.13;5035951;28;20049;-51
2023/03/08 01:43:53;;;;;;;5.07;2.97;;;;;;;20.03;41.60;99839.63;5035402;28;20046;-48
2023/03/08 01:46:26;;;;;;;5.68;3.80;;;;;;;20.03;41.45;99839.63;5036087;28;20287;-49
2023/03/08 01:49:10;;;;;;;5.70;3.80;;;;;;;20.03;41.59;99836.94;5035308;28;20045;-48
2023/03/08 01:51:40;;;;;;;5.82;3.67;;;;;;;20.03;41.38;99840.44;5034856;28;20057;-48
2023/03/08 01:54:30;;;;;;;7.13;4.68;;;;;;;20.03;41.57;99842.31;5034416;28;20053;-49
2023/03/08 01:57:04;;;;;;;5.68;3.33;;;;;;;20.02;41.50;99846.84;5035917;28;20395;-48
2023/03/08 01:59:33;;;;;;;6.88;4.00;;;;;;;20.02;41.47;99846.00;5034486;28;20056;-49
2023/03/08 02:02:01;;;;;;;5.00;3.90;;;;;;;20.02;41.49;99844.16;5034040;28;20060;-51
2023/03/08 02:04:30;;;;;;;6.40;3.72;;;;;;;20.02;41.52;99837.94;5033855;28;20049;-47
2023/03/08 02:06:58;;;;;;;5.35;3.67;;;;;;;20.02;41.56;99835.25;5035268;28;20045;-47
2023/03/08 02:09:26;;;;;;;5.63;3.88;;;;;;;20.01;41.50;99829.00;5035880;28;20064;-48
2023/03/08 02:12:00;;;;;;;5.68;3.90;;;;;;;20.00;41.35;99830.03;5035628;28;20049;-49
2023/03/08 02:14:28;;;;;;;4.90;3.58;;;;;;;19.99;41.40;99828.34;5034326;28;20054;-48
2023/03/08 02:16:55;;;;;;;8.60;4.18;;;;;;;19.99;41.41;99831.88;5034509;28;20045;-48
2023/03/08 02:19:33;;;;;;;5.20;3.88;;;;;;;19.99;41.51;99829.19;5035275;28;20049;-48
2023/03/08 02:22:08;;;;;;;4.95;4.18;;;;;;;20.00;41.35;99824.66;5033656;28;20060;-49
2023/03/08 02:24:35;;;;;;;5.50;3.25;;;;;;;19.99;41.33;99823.81;5034209;28;20057;-49
2023/03/08 02:27:08;;;;;;;5.57;3.80;;;;;;;19.99;41.64;99828.34;5035433;28;20056;-48
2023/03/08 02:29:35;;;;;;;5.20;3.60;;;;;;;19.99;41.46;99825.66;5034477;28;20388;-49
2023/03/08 02:32:03;;;;;;;5.57;3.50;;;;;;;20.00;41.45;99819.28;5034127;28;20048;-48
2023/03/08 02:34:30;;;;;;;4.45;3.30;;;;;;;19.99;41.54;99820.28;5035337;28;20049;-50
2023/03/08 02:36:57;;;;;;;5.57;3.50;;;;;;;20.00;41.50;99827.34;5035134;28;20053;-49
2023/03/08 02:39:25;;;;;;;8.18;3.85;;;;;;;19.99;41.59;99820.28;5034534;28;20055;-49
2023/03/08 02:41:54;;;;;;;4.93;3.20;;;;;;;20.01;41.94;99810.19;5035141;28;20045;-50
2023/03/08 02:44:21;;;;;;;6.38;3.40;;;;;;;20.00;42.00;99819.28;5033669;28;20057;-50
2023/03/08 02:46:51;;;;;;;5.45;3.05;;;;;;;20.01;41.95;99818.25;5033910;28;20060;-47
2023/03/08 02:49:19;;;;;;;7.13;3.03;;;;;;;20.00;42.04;99809.38;5033612;28;20053;-49
2023/03/08 02:51:47;;;;;;;6.07;3.40;;;;;;;20.00;41.83;99806.69;5035261;28;20053;-49
2023/03/08 02:54:14;;;;;;;7.13;3.50;;;;;;;20.00;41.86;99801.31;5033575;28;20056;-50
2023/03/08 02:56:43;;;;;;;7.10;3.17;;;;;;;20.01;41.95;99796.78;5035050;28;20057;-52
2023/03/08 02:59:12;;;;;;;4.70;3.40;;;;;;;20.02;41.96;99794.94;5033196;28;20045;-50
2023/03/08 03:01:42;;;;;;;6.72;3.20;;;;;;;20.01;41.83;99788.72;5033706;28;20046;-51
2023/03/08 03:04:09;;;;;;;4.40;2.90;;;;;;;20.01;41.97;99777.97;5034889;28;20065;-52
2023/03/08 03:06:37;;;;;;;4.10;2.42;;;;;;;20.00;41.99;99790.56;5033817;28;20416;-50
2023/03/08 03:09:06;;;;;;;6.03;3.15;;;;;;;20.00;42.04;99787.88;5032898;28;20053;-49
2023/03/08 03:11:34;;;;;;;5.13;2.95;;;;;;;20.01;42.02;99791.41;5033016;28;20041;-49
2023/03/08 03:14:01;;;;;;;3.42;2.40;;;;;;;20.00;41.97;99797.78;5034644;28;20046;-52
2023/03/08 03:16:35;;;;;;;5.25;3.35;;;;;;;19.99;41.83;99798.78;5033743;28;20060;-50
2023/03/08 03:19:03;;;;;;;6.28;3.03;;;;;;;19.99;41.97;99807.69;5033586;28;20046;-49
2023/03/08 03:21:30;;;;;;;3.50;2.60;;;;;;;20.00;41.80;99808.53;5034262;28;20045;-48
2023/03/08 03:23:58;;;;;;;4.82;3.00;;;;;;;19.98;41.63;99803.31;5032466;28;20053;-48
2023/03/08 03:26:34;;;;;;;4.40;2.80;;;;;;;19.98;41.73;99807.88;5033180;28;20056;-51
2023/03/08 03:29:01;;;;;;;4.93;3.13;;;;;;;19.97;41.76;99815.09;5033164;28;20072;-47
2023/03/08 03:31:33;;;;;;;5.75;3.13;;;;;;;19.97;41.73;99820.47;5033011;28;20353;-47
2023/03/08 03:34:01;;;;;;;8.00;3.40;;;;;;;19.97;41.64;99830.34;5032978;28;20057;-47
2023/03/08 03:36:28;;;;;;;3.75;3.00;;;;;;;19.97;41.54;99833.03;5032909;28;20053;-51
2023/03/08 03:38:57;;;;;;;5.57;3.03;;;;;;;19.95;41.37;99827.81;5033005;28;20053;-49
2023/03/08 03:41:25;;;;;;;4.95;2.90;;;;;;;19.95;41.68;99822.44;5033245;28;20475;-49
2023/03/08 03:44:06;;;;;;;3.67;2.80;;;;;;;19.96;41.36;99828.66;5032348;28;20488;-48
2023/03/08 03:46:34;;;;;;;5.18;2.50;;;;;;;19.94;41.64;99826.16;5032828;28;20061;-48
2023/03/08 03:49:04;;;;;;;3.47;2.53;;;;;;;19.95;41.47;99829.66;5032188;28;20510;-48
2023/03/08 03:51:36;;;;;;;4.60;2.55;;;;;;;19.94;41.24;99831.50;5033752;28;20041;-50
2023/03/08 03:54:13;;;;;;;7.68;2.95;;;;;;;19.94;41.60;99846.78;5032468;28;20050;-49
2023/03/08 03:56:43;;;;;;;4.95;2.85;;;;;;;19.94;41.40;99853.00;5032774;28;20054;-49
2023/03/08 03:59:11;;;;;;;4.38;2.78;;;;;;;19.94;41.16;99854.84;5032078;28;20053;-49
2023/03/08 04:01:39;;;;;;;3.97;2.45;;;;;;;19.95;41.39;99864.59;5032624;28;20057;-48
2023/03/08 04:04:24;;;;;;;3.80;2.35;;;;;;;19.94;41.39;99862.91;5032654;28;20059;-47
2023/03/08 04:06:53;;;;;;;4.63;2.83;;;;;;;19.93;41.42;99859.38;5032610;28;20407;-48
2023/03/08 04:09:24;;;;;;;4.38;2.85;;;;;;;19.94;41.36;99860.22;5032058;28;20057;-48
2023/03/08 04:12:14;;;;;;;4.15;2.50;;;;;;;19.94;41.19;99862.91;5032715;28;20041;-48
2023/03/08 04:14:41;;;;;;;3.22;2.25;;;;;;;19.94;41.33;99865.59;5031834;28;20392;-48
2023/03/08 04:17:12;;;;;;;3.72;2.67;;;;;;;19.94;41.19;99868.28;5032349;28;20053;-47
2023/03/08 04:19:52;;;;;;;4.60;2.25;;;;;;;19.94;41.47;99868.28;5033697;28;20049;-46
2023/03/08 04:22:21;;;;;;;4.53;2.47;;;;;;;19.93;41.30;99867.44;5031703;28;20056;-46
2023/03/08 04:24:53;;;;;;;;;;;;;;;19.93;41.33;99866.56;5032745;28;20053;-47
2023/03/08 04:27:28;;;;;;;3.70;2.38;;;;;;;19.93;41.21;99855.84;5032696;28;19944;-47
2023/03/08 04:29:55;;;;;;;4.95;2.55;;;;;;;19.92;41.38;99860.38;5034509;28;20368;-48
2023/03/08 04:32:23;;;;;;;4.03;2.45;;;;;;;19.92;41.10;99856.84;5038710;28;20058;-50
2023/03/08 04:34:55;;;;;;;4.40;2.83;;;;;;;19.92;41.26;99864.91;5039045;28;20049;-47
2023/03/08 04:37:26;;;;;;;3.42;2.20;;;;;;;19.91;41.33;99869.44;5038934;28;20522;-48
2023/03/08 04:40:00;;;;;;;3.47;1.67;;;;;;;19.92;41.18;99878.34;5038403;28;20045;-47
2023/03/08 04:42:29;;;;;;;3.30;2.15;;;;;;;19.91;41.18;99879.34;5038621;28;20045;-47
2023/03/08 04:44:56;;;;;;;3.88;2.38;;;;;;;19.91;41.28;99893.59;5039847;28;20068;-49
2023/03/08 04:47:25;;;;;;;5.32;2.60;;;;;;;19.91;41.18;99900.81;5037954;28;20082;-48
2023/03/08 04:49:52;;;;;;;3.80;2.35;;;;;;;19.91;40.99;99901.66;5038607;28;20057;-49
2023/03/08 04:52:20;;;;;;;4.20;2.40;;;;;;;19.90;41.16;99900.00;5038016;28;20046;-48
2023/03/08 04:54:48;;;;;;;4.03;2.28;;;;;;;19.91;41.06;99892.78;5038016;28;20049;-47
2023/03/08 04:57:20;;;;;;;3.27;2.13;;;;;;;19.90;41.07;99883.03;5038401;28;20519;-46
2023/03/08 04:59:50;;;;;;;4.55;2.58;;;;;;;19.90;41.28;99893.78;5037937;28;20057;-47
2023/03/08 05:02:17;;;;;;;4.32;2.60;;;;;;;19.90;41.36;99899.16;5038950;28;20483;-48
2023/03/08 05:04:46;;;;;;;5.05;2.67;;;;;;;19.89;41.17;99892.94;5038559;28;20403;-49
2023/03/08 05:07:13;;;;;;;4.25;2.25;;;;;;;19.89;41.17;99894.75;5038569;28;20053;-47
2023/03/08 05:09:41;;;;;;;3.90;2.38;;;;;;;19.89;41.44;99894.75;5038540;28;20060;-48
2023/03/08 05:12:09;;;;;;;5.45;2.00;;;;;;;19.89;41.23;99898.31;5037954;28;20060;-49
2023/03/08 05:14:48;;;;;;;5.35;2.13;;;;;;;19.89;41.16;99884.00;5038450;28;20060;-48
2023/03/08 05:17:16;;;;;;;3.35;2.03;;;;;;;19.89;41.39;99884.00;5037979;28;20054;-49
2023/03/08 05:19:44;;;;;;;3.58;1.83;;;;;;;19.89;41.29;99882.19;5038440;28;20072;-48
2023/03/08 05:22:14;;;;;;;3.75;2.13;;;;;;;19.89;41.28;99889.38;5037938;28;20379;-47
2023/03/08 05:24:47;;;;;;;3.25;2.22;;;;;;;19.89;41.19;99886.69;5038437;28;20045;-48
2023/03/08 05:27:16;;;;;;;3.25;1.90;;;;;;;19.88;41.14;99896.59;5039714;28;20068;-47
2023/03/08 05:29:44;;;;;;;4.03;2.40;;;;;;;19.88;41.12;99901.97;5038613;28;20049;-47
2023/03/08 05:32:12;;;;;;;3.45;1.70;;;;;;;19.88;41.00;99898.44;5038309;28;20057;-47
2023/03/08 05:34:40;;;;;;;4.03;1.83;;;;;;;19.88;40.98;99911.88;5038343;28;20380;-48
2023/03/08 05:37:12;;;;;;;3.72;2.17;;;;;;;19.88;40.92;99904.66;5037716;28;20046;-51
2023/03/08 05:39:42;;;;;;;3.15;1.77;;;;;;;19.88;41.08;99895.75;5037850;28;20050;-49
2023/03/08 05:42:18;;;;;;;4.05;2.03;;;;;;;19.88;40.97;99904.66;5035970;28;20049;-50
2023/03/08 05:44:46;;;;;;;3.10;2.10;;;;;;;19.88;40.96;99888.53;5036252;28;20056;-48
2023/03/08 05:47:18;;;;;;;4.32;2.15;;;;;;;19.86;41.33;99871.75;5035079;28;20049;-49
2023/03/08 05:49:46;;;;;;;4.82;2.17;;;;;;;19.88;41.14;99885.03;5036205;28;20045;-49
2023/03/08 05:52:15;;;;;;;3.60;2.00;;;;;;;19.87;40.97;99888.72;5035346;28;20049;-51
2023/03/08 05:54:42;;;;;;;2.60;1.67;;;;;;;19.87;41.10;99891.41;5035101;28;20049;-49
2023/03/08 05:57:14;;;;;;;3.58;2.45;;;;;;;19.87;41.14;99880.66;5034407;28;20060;-48
2023/03/08 05:59:42;;;;;;;3.53;1.95;;;;;;;19.87;41.34;99894.09;5034909;28;20634;-47
2023/03/08 06:02:12;;;;;;;4.13;1.90;;;;;;;19.87;41.28;99904.84;5034308;28;20053;-48
2023/03/08 06:04:44;;;;;;;4.05;1.70;;;;;;;19.86;41.21;99906.69;5034094;28;20077;-50
2023/03/08 06:07:14;;;;;;;3.50;2.10;;;;;;;19.86;41.04;99906.69;5034137;28;20064;-48
2023/03/08 06:09:47;;;;;;;4.90;1.90;;;;;;;19.87;41.21;99902.16;5034885;28;20045;-52
2023/03/08 06:12:16;;;;;;;4.32;1.98;;;;;;;19.87;41.09;99908.34;5033765;28;20053;-48
2023/03/08 06:14:47;;;;;;;2.90;1.80;;;;;;;19.86;41.03;99919.28;5034623;28;20057;-51
2023/03/08 06:17:17;;;;;;;4.20;2.17;;;;;;;19.86;41.18;99917.41;5033932;28;20045;-50
2023/03/08 06:19:47;;;;;;;2.63;1.55;;;;;;;19.86;41.18;99914.72;5034482;28;20049;-49
2023/03/08 06:22:16;;;;;;;4.90;2.08;;;;;;;19.86;41.27;99921.97;5033892;28;20041;-50
2023/03/08 06:24:48;;;;;;;3.47;2.00;;;;;;;19.86;40.94;99921.97;5034677;28;20060;-49
2023/03/08 06:27:20;;;;;;;5.15;2.33;;;;;;;19.86;41.01;99928.16;5034748;28;20053;-49
2023/03/08 06:29:49;;;;;;;2.90;1.85;;;;;;;19.87;41.05;99937.06;5034057;28;20060;-50
2023/03/08 06:32:19;;;;;;;3.03;1.90;;;;;;;19.87;41.11;99945.13;5034165;28;20046;-50
2023/03/08 06:34:46;;;;;;;4.07;1.98;;;;;;;19.86;40.99;99943.44;5035293;28;20049;-49
2023/03/08 06:37:14;;;;;;;5.28;2.28;;;;;;;19.86;40.99;99943.44;5034166;28;20058;-50
2023/03/08 06:39:41;;;;;;;3.28;1.80;;;;;;;19.85;40.92;99942.59;5033878;28;20492;-48
2023/03/08 06:42:09;;;;;;;3.38;1.88;;;;;;;19.86;40.89;99940.75;5034210;28;20049;-49
2023/03/08 06:44:36;;;;;;;2.97;1.88;;;;;;;19.85;41.05;99949.78;5035161;28;20053;-47
2023/03/08 06:47:06;;;;;;;4.82;2.17;;;;;;;19.85;41.06;99949.78;5034114;28;20046;-47
2023/03/08 06:49:33;;;;;;;4.97;1.75;;;;;;;19.85;41.20;99947.09;5033921;28;20510;-47
2023/03/08 06:52:00;;;;;;;2.90;1.80;;;;;;;19.84;40.93;99959.69;5033632;28;20052;-48
2023/03/08 06:54:28;;;;;;;2.65;1.55;;;;;;;19.86;41.00;99964.94;5032876;28;20049;-48
2023/03/08 06:56:56;;;;;;;3.47;1.95;;;;;;;19.85;40.86;99965.91;5033240;28;20057;-47
2023/03/08 06:59:23;;;;;;;2.90;1.75;;;;;;;19.85;41.00;99969.47;5034543;28;20064;-48
2023/03/08 07:01:50;;;;;;;5.88;1.65;;;;;;;19.86;41.11;99981.03;5035062;28;20436;-48
2023/03/08 07:04:18;;;;;;;3.28;1.67;;;;;;;19.87;41.15;99980.88;5034857;28;20049;-48
2023/03/08 07:06:45;;;;;;;3.42;1.80;;;;;;;19.88;40.92;99989.78;5034725;28;20041;-48
2023/03/08 07:09:12;;;;;;;3.85;1.80;;;;;;;19.88;41.01;99985.25;5034645;28;20057;-48
2023/03/08 07:11:40;;;;;;;3.05;1.63;;;;;;;19.88;41.02;99979.03;5034740;28;20049;-46
2023/03/08 07:14:07;;;;;;;3.97;1.77;;;;;;;19.88;41.07;99977.19;5034356;28;20046;-49
2023/03/08 07:16:34;;;;;;;3.17;1.70;;;;;;;19.88;41.45;99984.41;5034316;28;20049;-48
2023/03/08 07:19:02;;;;;;;4.18;2.05;;;;;;;19.90;41.65;99985.09;5034384;28;20045;-47
2023/03/08 07:21:29;;;;;;;6.13;2.10;;;;;;;19.91;41.62;99990.31;5034268;28;20041;-48
2023/03/08 07:23:57;;;;;;;3.78;1.73;;;;;;;19.93;41.47;99998.19;5034166;28;20073;-48
2023/03/08 07:26:24;;;;;;;4.30;2.17;;;;;;;19.92;41.33;99994.69;5034220;28;20045;-49
2023/03/08 07:28:52;;;;;;;4.65;2.20;;;;;;;19.95;41.31;99996.22;5033065;28;20045;-51
2023/03/08 07:31:19;;;;;;;4.95;2.20;;;;;;;19.95;41.59;100006.97;5033686;28;20060;-49
2023/03/08 07:33:46;;;;;;;6.57;2.92;;;;;;;19.91;39.10;100011.81;5034088;28;20041;-49
2023/03/08 07:36:14;;;;;;;4.30;2.63;;;;;;;19.82;38.73;100020.78;5034055;28;20056;-50
2023/03/08 07:38:41;;;;;;;6.22;2.95;;;;;;;19.69;38.60;100012.31;5033123;28;20510;-50
2023/03/08 07:41:09;;;;;;;4.78;2.88;;;;;;;19.61;39.16;100013.06;5051265;28;20056;-53
2023/03/08 07:43:36;;;;;;;6.55;3.35;;;;;;;19.54;39.33;100022.69;5053449;28;20066;-48
2023/03/08 07:46:20;;;;;;;6.60;2.75;;;;;;;19.47;39.59;100017.06;5053950;28;20071;-48
2023/03/08 07:48:47;;;;;;;6.13;3.35;;;;;;;19.42;39.85;100026.59;5053202;28;20048;-49
2023/03/08 07:51:14;;;;;;;5.50;2.75;;;;;;;19.36;39.77;100025.34;5053502;28;20056;-50
2023/03/08 07:53:42;;;;;;;8.38;2.95;;;;;;;19.31;40.25;100032.16;5053303;28;20067;-52
2023/03/08 07:56:10;;;;;;;3.63;2.00;;;;;;;19.33;41.57;100028.34;5053179;28;20052;-49
2023/03/08 07:58:38;;;;;;;6.78;1.90;;;;;;;19.41;41.69;100027.59;5053319;28;20115;-50
2023/03/08 08:01:09;;;;;;;6.82;2.03;;;;;;;19.47;41.52;100018.91;5053324;28;20045;-50
2023/03/08 08:03:37;;;;;;;5.68;1.88;;;;;;;19.55;42.14;100023.53;5051264;28;20053;-52
2023/03/08 08:06:05;;;;;;;6.10;2.20;;;;;;;19.61;42.16;100018.44;5052563;28;20056;-49
2023/03/08 08:08:33;;;;;;;3.92;1.70;;;;;;;19.65;42.11;100016.28;5053311;28;20056;-50
2023/03/08 08:11:08;;;;;;;3.85;1.52;;;;;;;19.70;42.06;100013.97;5053066;28;20060;-51
2023/03/08 08:13:35;;;;;;;3.42;2.20;;;;;;;19.73;41.98;100019.88;5053207;28;20041;-50
2023/03/08 08:16:03;;;;;;;5.13;2.20;;;;;;;19.75;41.86;100020.56;5051595;28;20080;-49
2023/03/08 08:18:30;;;;;;;4.13;2.13;;;;;;;19.78;41.52;100027.47;5052895;28;20052;-49
2023/03/08 08:21:03;;;;;;;6.28;2.63;;;;;;;19.79;41.51;100025.63;5052983;28;20044;-52
2023/03/08 08:23:31;;;;;;;5.60;2.72;;;;;;;19.81;41.38;100034.38;5052961;28;20053;-57
2023/03/08 08:26:03;;;;;;;6.90;3.20;;;;;;;19.83;41.27;100027.84;5052989;28;20045;-57
2023/03/08 08:28:31;;;;;;;5.93;2.40;;;;;;;19.87;41.59;100033.75;5053171;28;20108;-58
2023/03/08 08:31:07;;;;;;;7.72;2.80;;;;;;;19.88;41.73;100038.97;5053229;28;20044;-57
2023/03/08 08:33:35;;;;;;;4.05;2.38;;;;;;;19.91;41.73;100051.25;5053101;28;20049;-53
2023/03/08 08:36:05;;;;;;;3.95;2.22;;;;;;;19.93;42.11;100060.84;5052975;28;20049;-54
2023/03/08 08:38:33;;;;;;;4.15;2.00;;;;;;;19.97;42.89;100066.75;5053055;28;20045;-51
2023/03/08 08:41:02;;;;;;;6.07;2.53;;;;;;;19.99;42.69;100062.06;5052729;28;20052;-50
2023/03/08 08:43:31;;;;;;;5.50;2.28;;;;;;;20.00;42.69;100071.81;5052947;28;20041;-57
2023/03/08 08:45:59;;;;;;;3.85;2.10;;;;;;;20.03;42.42;100074.19;5032883;28;20045;-58
2023/03/08 08:48:27;;;;;;;6.57;2.13;;;;;;;20.05;42.54;100077.56;5032806;28;20049;-56
2023/03/08 08:50:56;;;;;;;5.30;2.38;;;;;;;20.08;42.59;100081.78;5052227;28;20056;-49
2023/03/08 08:53:24;;;;;;;3.85;2.00;;;;;;;20.09;42.63;100084.31;5052944;28;20041;-56
2023/03/08 08:55:52;;;;;;;6.05;2.92;;;;;;;20.10;42.04;100080.66;5052510;28;20049;-51
2023/03/08 08:58:19;;;;;;;7.53;2.88;;;;;;;20.12;41.90;100075.94;5052288;28;20581;-51
2023/03/08 09:00:47;;;;;;;5.72;2.33;;;;;;;20.13;42.58;100069.56;5052722;28;20494;-50
2023/03/08 09:03:14;;;;;;;4.25;2.22;;;;;;;20.15;42.25;100072.13;5052908;28;20060;-49
2023/03/08 09:05:43;;;;;;;5.63;2.75;;;;;;;20.16;42.21;100084.53;5052744;28;20056;-49
2023/03/08 09:08:10;;;;;;;5.95;2.42;;;;;;;20.17;42.33;100073.63;5052680;28;20052;-49
2023/03/08 09:10:40;;;;;;;6.18;2.70;;;;;;;20.18;42.07;100066.44;5052486;28;20048;-50
2023/03/08 09:13:07;;;;;;;5.32;2.42;;;;;;;20.18;41.71;100078.03;5052574;28;20041;-52
2023/03/08 09:15:36;;;;;;;6.88;2.78;;;;;;;20.19;41.67;100068.97;5052867;28;20071;-52
2023/03/08 09:18:03;;;;;;;4.97;2.35;;;;;;;20.21;41.70;100066.09;5053914;28;20467;-58
2023/03/08 09:20:31;;;;;;;6.60;2.70;;;;;;;20.21;41.78;100048.13;5056528;28;20056;-56
2023/03/08 09:22:58;;;;;;;5.75;2.13;;;;;;;20.23;42.24;100039.94;5056200;28;20060;-57
2023/03/08 09:25:25;;;;;;;4.18;2.33;;;;;;;20.23;41.80;100048.00;5056584;28;20051;-50
2023/03/08 09:27:52;;;;;;;5.80;2.63;;;;;;;20.24;42.24;100053.19;5056477;28;20357;-52
2023/03/08 09:30:20;;;;;;;4.78;2.63;;;;;;;20.24;42.10;100047.81;5056474;28;20057;-55
2023/03/08 09:32:47;;;;;;;8.40;3.15;;;;;;;20.25;42.39;100051.34;5055645;28;20056;-49
2023/03/08 09:35:16;;;;;;;8.20;3.40;;;;;;;20.26;42.15;100058.44;5054731;28;20056;-51
2023/03/08 09:37:43;;;;;;;11.88;3.15;;;;;;;20.25;42.08;100062.97;5055773;28;20045;-49
2023/03/08 09:40:23;;;;;;;6.13;2.70;;;;;;;20.28;42.30;100066.34;5055639;28;20037;-50
2023/03/08 09:42:52;;;;;;;11.13;3.28;;;;;;;20.28;42.17;100064.47;5056032;28;20056;-52
2023/03/08 09:45:27;;;;;;;11.25;3.55;;;;;;;20.29;42.10;100057.25;5055931;28;20045;-57
2023/03/08 09:47:58;;;;;;;6.90;3.25;;;;;;;20.30;42.13;100057.13;5055995;28;20051;-57
2023/03/08 09:50:48;;;;;;;8.32;3.13;;;;;;;20.31;42.35;100061.50;5055921;28;20080;-55
2023/03/08 09:53:23;;;;;;;6.70;2.90;;;;;;;20.32;42.46;100067.72;5055221;28;20063;-48
2023/03/08 09:55:56;;;;;;;8.27;2.67;;;;;;;20.32;42.30;100082.00;5055644;28;20088;-53
2023/03/08 09:58:29;;;;;;;7.55;3.13;;;;;;;20.33;42.45;100083.66;5055755;28;20045;-50
2023/03/08 10:01:00;;;;;;;;;;;;;;;20.34;42.43;100090.75;5056187;28;20053;-48
2023/03/08 10:03:57;;;;;;;8.60;3.08;;;;;;;20.35;42.17;100089.75;5055460;28;19927;-53
2023/03/08 10:06:30;;;;;;;6.65;4.13;;;;;;;20.36;42.38;100085.22;5054220;28;20053;-50
2023/03/08 10:09:19;;;;;;;6.35;3.22;;;;;;;20.37;42.43;100079.66;5055423;28;20049;-48
2023/03/08 10:12:00;;;;;;;6.47;3.15;;;;;;;20.38;42.57;100075.16;5035650;28;20053;-49
2023/03/08 10:14:48;;;;;;;5.90;2.85;;;;;;;20.39;42.61;100082.22;5042283;28;20415;-49
2023/03/08 10:17:23;;;;;;;7.25;2.97;;;;;;;20.39;42.38;100074.16;5055244;28;20054;-48
2023/03/08 10:20:12;;;;;;;7.13;3.50;;;;;;;20.40;42.78;100067.75;5055390;28;20052;-52
2023/03/08 10:22:41;;;;;;;7.63;3.38;;;;;;;20.41;42.22;100077.50;5055094;28;20056;-57
2023/03/08 10:25:30;;;;;;;5.82;3.03;;;;;;;20.41;42.33;100077.50;5055094;28;20064;-51
2023/03/08 10:28:00;;;;;;;6.75;3.10;;;;;;;20.41;42.23;100080.19;5054520;28;20044;-54
2023/03/08 10:30:33;;;;;;;5.68;3.15;;;;;;;20.41;42.19;100072.13;5054774;28;20045;-52
2023/03/08 10:33:06;;;;;;;9.60;3.40;;;;;;;20.41;42.23;100074.81;5055219;28;20399;-51
2023/03/08 10:35:37;;;;;;;5.38;3.10;;;;;;;20.40;42.11;100068.59;5054911;28;20052;-55
2023/03/08 10:38:15;;;;;;;8.48;3.22;;;;;;;20.42;42.25;100068.47;5054690;28;20103;-58
2023/03/08 10:40:42;;;;;;;6.40;3.63;;;;;;;20.41;42.10;100058.69;5055184;28;20045;-58
2023/03/08 10:43:25;;;;;;;7.05;3.45;;;;;;;20.41;42.36;100051.47;5055071;28;20045;-56
2023/03/08 10:46:05;;;;;;;5.93;3.23;;;;;;;20.42;42.22;100046.97;5054217;28;20037;-48
2023/03/08 10:48:32;;;;;;;5.90;3.40;;;;;;;20.41;42.37;100040.72;5053597;28;20441;-50
2023/03/08 10:51:02;;;;;;;6.45;2.88;;;;;;;20.42;42.63;100039.72;5054902;28;20051;-50
2023/03/08 10:53:31;;;;;;;9.77;3.88;;;;;;;20.44;42.42;100031.50;5054284;28;20494;-51
2023/03/08 10:56:00;;;;;;;6.70;3.50;;;;;;;20.44;42.13;100026.13;5054598;28;20045;-51
2023/03/08 10:58:30;;;;;;;7.32;3.47;;;;;;;20.43;42.44;100025.28;5054501;28;20045;-49
2023/03/08 11:01:01;;;;;;;8.25;3.40;;;;;;;20.44;42.36;100032.34;5054449;28;20045;-50
2023/03/08 11:03:29;;;;;;;4.38;2.60;;;;;;;20.44;42.25;100018.91;5054422;28;20044;-50
2023/03/08 11:06:23;;;;;;;5.47;2.70;;;;;;;20.44;42.26;100026.97;5054031;28;20045;-50
2023/03/08 11:08:53;;;;;;;6.00;3.00;;;;;;;20.44;42.19;100010.84;5054193;28;20419;-48
2023/03/08 11:11:22;;;;;;;7.40;3.08;;;;;;;20.44;42.19;100010.84;5054286;28;20052;-51
2023/03/08 11:13:51;;;;;;;6.18;3.97;;;;;;;20.45;42.08;100011.66;5054147;28;20056;-55
2023/03/08 11:16:30;;;;;;;4.57;2.88;;;;;;;20.45;42.14;100017.03;5054127;28;20414;-52
2023/03/08 11:19:22;;;;;;;4.28;2.75;;;;;;;20.45;42.03;100003.59;5053714;28;20049;-52
2023/03/08 11:22:04;;;;;;;7.63;3.15;;;;;;;20.46;43.46;100016.91;5054109;28;20053;-55
2023/03/08 11:24:40;;;;;;;6.68;3.38;;;;;;;20.46;47.21;100019.59;5054048;28;20068;-52
2023/03/08 11:27:17;;;;;;;6.55;3.17;;;;;;;20.45;47.87;100000.91;5054212;28;20077;-50
2023/03/08 11:30:02;;;;;;;5.82;2.60;;;;;;;20.44;48.69;100007.31;5054394;28;20045;-51
2023/03/08 11:32:39;;;;;;;4.20;2.63;;;;;;;20.41;49.45;99999.53;5053489;28;20059;-48
2023/03/08 11:35:29;;;;;;;4.65;2.70;;;;;;;20.40;51.32;100003.25;5053816;28;20049;-48
2023/03/08 11:38:14;;;;;;;5.28;2.65;;;;;;;20.38;51.76;99999.88;5054004;28;20045;-56
2023/03/08 11:40:44;;;;;;;5.25;3.03;;;;;;;20.35;52.69;99994.81;5053482;28;20045;-52
2023/03/08 11:43:21;;;;;;;6.88;2.50;;;;;;;20.34;53.20;99987.78;5054130;28;20403;-57
2023/03/08 11:46:01;;;;;;;5.28;3.05;;;;;;;20.32;51.45;100003.19;5053754;28;20044;-54